createdAt,value
2018-09-28T00:00:39.225Z,14.00
2018-09-28T00:03:08.394Z,11.30
2018-09-28T00:05:37.549Z,10.57
2018-09-28T00:08:06.915Z,12.33
2018-09-28T00:10:36.510Z,10.37
2018-09-28T00:13:05.638Z,15.70
2018-09-28T00:15:35.430Z,13.87
2018-09-28T00:18:04.586Z,16.53
2018-09-28T00:20:33.704Z,15.63
2018-09-28T00:23:02.835Z,13.37
2018-09-28T00:25:32.513Z,14.03
2018-09-28T00:28:01.673Z,15.53
2018-09-28T00:30:31.102Z,18.67
2018-09-28T00:33:00.219Z,12.60
2018-09-28T00:35:30.742Z,16.93
2018-09-28T00:37:59.866Z,11.00
2018-09-28T00:40:29.679Z,11.53
2018-09-28T00:42:58.837Z,19.57
2018-09-28T00:45:29.119Z,12.73
2018-09-28T00:48:00.988Z,15.27
2018-09-28T00:50:30.118Z,14.37
2018-09-28T00:52:59.251Z,13.37
2018-09-28T00:55:28.402Z,18.20
2018-09-28T00:57:57.562Z,16.87
2018-09-28T01:00:26.825Z,15.97
2018-09-28T01:02:55.958Z,15.13
2018-09-28T01:05:25.077Z,12.07
2018-09-28T01:07:56.677Z,11.50
2018-09-28T01:10:25.909Z,17.30
2018-09-28T01:12:55.161Z,13.87
2018-09-28T01:15:24.509Z,12.43
2018-09-28T01:17:53.585Z,19.60
2018-09-28T01:20:22.758Z,14.63
2018-09-28T01:22:51.913Z,16.63
2018-09-28T01:25:21.049Z,11.40
2018-09-28T01:27:50.191Z,12.53
2018-09-28T01:30:19.758Z,14.00
2018-09-28T01:32:48.981Z,18.93
2018-09-28T01:35:18.241Z,13.07
2018-09-28T01:37:48.130Z,15.37
2018-09-28T01:40:18.670Z,16.53
2018-09-28T01:42:54.786Z,13.77
2018-09-28T01:45:24.018Z,13.10
2018-09-28T01:47:53.254Z,14.27
2018-09-28T01:50:23.239Z,14.50
2018-09-28T01:52:52.801Z,19.27
2018-09-28T01:55:22.602Z,15.60
2018-09-28T01:57:51.742Z,12.47
2018-09-28T02:00:20.960Z,13.93
2018-09-28T02:02:50.109Z,17.33
2018-09-28T02:05:21.335Z,14.10
2018-09-28T02:07:51.210Z,21.10
2018-09-28T02:10:20.961Z,20.83
2018-09-28T02:12:50.218Z,15.60
2018-09-28T02:15:19.410Z,15.07
2018-09-28T02:17:48.797Z,14.53
2018-09-28T02:20:18.491Z,17.60
2018-09-28T02:22:47.780Z,16.90
2018-09-28T02:25:17.102Z,14.60
2018-09-28T02:27:46.514Z,15.40
2018-09-28T02:30:16.157Z,16.83
2018-09-28T02:32:45.407Z,16.70
2018-09-28T02:35:14.653Z,13.30
2018-09-28T02:37:43.972Z,15.77
2018-09-28T02:40:13.397Z,17.30
2018-09-28T02:42:43.314Z,15.60
2018-09-28T02:45:12.610Z,18.00
2018-09-28T02:47:42.030Z,19.57
2018-09-28T02:50:11.218Z,15.17
2018-09-28T02:52:40.400Z,14.30
2018-09-28T02:55:09.570Z,12.33
2018-09-28T02:57:38.694Z,15.27
2018-09-28T03:00:07.822Z,10.57
2018-09-28T03:02:36.988Z,12.17
2018-09-28T03:05:06.283Z,14.97
2018-09-28T03:07:35.441Z,22.10
2018-09-28T03:10:04.759Z,17.63
2018-09-28T03:12:33.992Z,19.00
2018-09-28T03:15:03.460Z,17.33
2018-09-28T03:17:32.685Z,13.67
2018-09-28T03:20:02.219Z,15.17
2018-09-28T03:22:32.146Z,21.10
2018-09-28T03:25:01.358Z,20.43
2018-09-28T03:27:30.503Z,14.47
2018-09-28T03:29:59.599Z,11.40
2018-09-28T03:32:28.734Z,19.90
2018-09-28T03:34:58.407Z,13.47
2018-09-28T03:37:27.553Z,15.30
2018-09-28T03:39:56.702Z,22.47
2018-09-28T03:42:25.870Z,15.63
2018-09-28T03:44:55.705Z,11.93
2018-09-28T03:47:24.850Z,14.33
2018-09-28T03:49:53.982Z,20.27
2018-09-28T03:52:23.095Z,15.23
2018-09-28T03:54:52.246Z,17.37
2018-09-28T03:57:21.774Z,16.10
2018-09-28T03:59:51.062Z,22.20
2018-09-28T04:02:20.455Z,17.30
2018-09-28T04:04:49.578Z,18.27
2018-09-28T04:07:18.747Z,16.90
2018-09-28T04:09:47.946Z,21.23
2018-09-28T04:12:17.148Z,18.73
2018-09-28T04:14:46.450Z,18.60
2018-09-28T04:17:15.622Z,24.50
2018-09-28T04:19:44.776Z,20.40
2018-09-28T04:22:13.939Z,16.10
2018-09-28T04:24:43.267Z,14.30
2018-09-28T04:27:12.787Z,15.87
2018-09-28T04:29:41.902Z,18.57
2018-09-28T04:32:11.062Z,13.17
2018-09-28T04:34:40.810Z,20.23
2018-09-28T04:37:10.602Z,16.67
2018-09-28T04:39:39.706Z,17.43
2018-09-28T04:42:08.941Z,25.83
2018-09-28T04:44:38.156Z,18.20
2018-09-28T04:47:07.447Z,22.47
2018-09-28T04:49:37.189Z,19.63
2018-09-28T04:52:07.246Z,24.80
2018-09-28T04:54:36.652Z,24.03
2018-09-28T04:57:05.910Z,18.17
2018-09-28T04:59:35.642Z,17.30
2018-09-28T05:02:05.302Z,16.97
2018-09-28T05:04:34.639Z,17.33
2018-09-28T05:10:05.271Z,14.47
2018-09-28T05:12:34.454Z,17.13
2018-09-28T05:15:03.610Z,20.50
2018-09-28T05:17:32.726Z,20.03
2018-09-28T05:20:02.079Z,18.03
2018-09-28T05:22:31.219Z,14.17
2018-09-28T05:25:00.355Z,22.23
2018-09-28T05:27:31.653Z,17.97
2018-09-28T05:30:04.887Z,16.40
2018-09-28T05:32:36.530Z,25.20
2018-09-28T05:35:05.586Z,19.00
2018-09-28T05:37:34.732Z,20.17
2018-09-28T05:40:03.979Z,21.13
2018-09-28T05:42:34.642Z,25.63
2018-09-28T05:45:03.822Z,21.27
2018-09-28T05:47:33.036Z,23.53
2018-09-28T05:50:02.388Z,23.80
2018-09-28T05:52:31.554Z,19.40
2018-09-28T05:55:00.835Z,23.50
2018-09-28T05:57:30.049Z,22.23
2018-09-28T06:00:04.510Z,19.90
2018-09-28T06:02:39.011Z,25.97
2018-09-28T06:05:13.396Z,36.10
2018-09-28T06:07:42.566Z,26.40
2018-09-28T06:10:11.788Z,21.27
2018-09-28T06:12:41.188Z,25.17
2018-09-28T06:15:10.318Z,24.07
2018-09-28T06:17:39.434Z,20.50
2018-09-28T06:20:08.737Z,13.53
2018-09-28T06:22:37.962Z,13.53
2018-09-28T06:25:07.276Z,12.80
2018-09-28T06:27:36.453Z,16.53
2018-09-28T06:30:05.733Z,17.07
2018-09-28T06:32:34.888Z,19.87
2018-09-28T06:35:04.093Z,12.50
2018-09-28T06:37:33.686Z,13.90
2018-09-28T06:40:02.986Z,11.47
2018-09-28T06:42:32.384Z,17.97
2018-09-28T06:45:01.795Z,12.77
2018-09-28T06:47:31.671Z,11.93
2018-09-28T06:50:01.143Z,14.23
2018-09-28T06:52:30.497Z,19.47
2018-09-28T06:54:59.798Z,19.67
2018-09-28T06:57:29.066Z,18.07
2018-09-28T06:59:58.568Z,13.63
2018-09-28T07:02:27.807Z,13.37
2018-09-28T07:04:57.054Z,12.23
2018-09-28T07:07:26.440Z,13.30
2018-09-28T07:09:55.746Z,11.60
2018-09-28T07:12:25.031Z,12.17
2018-09-28T07:14:54.254Z,15.97
2018-09-28T07:17:23.947Z,14.90
2018-09-28T07:19:53.439Z,12.10
2018-09-28T07:22:23.547Z,10.57
2018-09-28T07:24:52.789Z,15.40
2018-09-28T07:27:21.921Z,14.27
2018-09-28T07:29:51.187Z,11.23
2018-09-28T07:32:20.288Z,12.43
2018-09-28T07:34:49.549Z,13.90
2018-09-28T07:37:19.329Z,11.63
2018-09-28T07:39:48.443Z,12.23
2018-09-28T07:42:17.739Z,13.67
2018-09-28T07:44:46.915Z,10.70
2018-09-28T07:47:16.170Z,12.50
2018-09-28T07:49:45.362Z,12.70
2018-09-28T07:52:14.578Z,11.57
2018-09-28T07:54:43.762Z,12.30
2018-09-28T07:57:12.969Z,20.40
2018-09-28T07:59:42.141Z,16.20
2018-09-28T08:02:11.281Z,15.20
2018-09-28T08:04:40.481Z,15.00
2018-09-28T08:07:10.030Z,12.13
2018-09-28T08:09:39.261Z,11.93
2018-09-28T08:12:08.442Z,18.57
2018-09-28T08:14:37.637Z,12.63
2018-09-28T08:17:06.806Z,14.53
2018-09-28T08:19:36.002Z,12.07
2018-09-28T08:22:05.195Z,11.40
2018-09-28T08:24:34.443Z,14.43
2018-09-28T08:27:03.643Z,19.60
2018-09-28T08:29:32.783Z,14.63
2018-09-28T08:32:01.984Z,12.10
2018-09-28T08:34:31.226Z,12.77
2018-09-28T08:37:00.778Z,12.80
2018-09-28T08:39:30.444Z,14.07
2018-09-28T08:41:59.980Z,14.13
2018-09-28T08:44:29.698Z,14.33
2018-09-28T08:46:58.868Z,12.13
2018-09-28T08:49:28.815Z,11.50
2018-09-28T08:51:58.477Z,10.40
2018-09-28T08:54:27.995Z,12.70
2018-09-28T08:56:57.525Z,11.60
2018-09-28T08:59:26.769Z,19.97
2018-09-28T09:01:55.981Z,11.93
2018-09-28T09:04:25.288Z,12.43
2018-09-28T09:06:55.012Z,12.37
2018-09-28T09:09:24.247Z,15.93
2018-09-28T09:11:53.500Z,12.40
2018-09-28T09:14:22.706Z,9.80
2018-09-28T09:16:51.894Z,11.47
2018-09-28T09:19:21.062Z,16.10
2018-09-28T09:21:50.211Z,14.10
2018-09-28T09:24:19.493Z,12.17
2018-09-28T09:26:48.693Z,13.20
2018-09-28T09:29:18.356Z,17.63
2018-09-28T09:31:47.557Z,15.83
2018-09-28T09:34:16.705Z,15.37
2018-09-28T09:36:45.942Z,15.90
2018-09-28T09:39:15.124Z,14.03
2018-09-28T09:41:44.303Z,17.00
2018-09-28T09:44:13.659Z,14.07
2018-09-28T09:46:43.987Z,16.60
2018-09-28T09:49:13.723Z,17.53
2018-09-28T09:51:42.929Z,17.63
2018-09-28T09:54:12.099Z,16.33
2018-09-28T09:56:41.670Z,20.63
2018-09-28T09:59:10.850Z,14.93
2018-09-28T10:01:45.332Z,14.70
2018-09-28T10:04:14.534Z,15.80
2018-09-28T10:06:43.756Z,16.27
2018-09-28T10:09:14.006Z,20.00
2018-09-28T10:11:43.661Z,20.23
2018-09-28T10:14:12.854Z,22.00
2018-09-28T10:16:42.785Z,17.20
2018-09-28T10:19:12.123Z,14.33
2018-09-28T10:21:41.727Z,33.63
2018-09-28T10:24:11.632Z,14.13
2018-09-28T10:26:40.846Z,16.73
2018-09-28T10:29:10.050Z,12.60
2018-09-28T10:31:39.195Z,13.33
2018-09-28T10:34:08.408Z,18.13
2018-09-28T10:36:37.559Z,24.07
2018-09-28T10:39:08.479Z,14.83
2018-09-28T10:41:37.606Z,16.67
2018-09-28T10:44:07.015Z,10.13
2018-09-28T10:46:36.466Z,12.20
2018-09-28T10:49:05.765Z,11.00
2018-09-28T10:51:35.771Z,10.87
2018-09-28T10:54:05.000Z,9.07
2018-09-28T10:56:34.188Z,9.67
2018-09-28T10:59:03.354Z,10.77
2018-09-28T11:01:32.579Z,10.27
2018-09-28T11:04:09.176Z,9.53
2018-09-28T11:06:38.599Z,9.23
2018-09-28T11:09:10.205Z,10.67
2018-09-28T11:11:39.817Z,8.00
2018-09-28T11:14:09.098Z,14.33
2018-09-28T11:16:38.879Z,12.50
2018-09-28T11:19:08.099Z,12.87
2018-09-28T11:21:37.331Z,13.33
2018-09-28T11:24:06.566Z,10.30
2018-09-28T11:26:36.251Z,10.67
2018-09-28T11:29:05.563Z,14.90
2018-09-28T11:31:34.789Z,15.00
2018-09-28T11:34:03.998Z,13.57
2018-09-28T11:36:34.269Z,11.60
2018-09-28T11:39:05.343Z,7.80
2018-09-28T11:41:34.738Z,15.30
2018-09-28T11:44:03.901Z,11.10
2018-09-28T11:46:33.462Z,10.63
2018-09-28T11:49:03.082Z,10.00
2018-09-28T11:51:32.703Z,10.80
2018-09-28T11:54:01.924Z,11.37
2018-09-28T11:56:31.132Z,12.37
2018-09-28T11:59:00.298Z,9.80
2018-09-28T12:01:29.452Z,9.47
2018-09-28T12:03:58.618Z,13.50
2018-09-28T12:06:27.883Z,15.83
2018-09-28T12:08:57.373Z,13.23
2018-09-28T12:11:26.519Z,8.97
2018-09-28T12:13:55.775Z,13.17
2018-09-28T12:16:24.956Z,10.97
2018-09-28T12:18:54.169Z,8.93
2018-09-28T12:21:23.489Z,8.20
2018-09-28T12:23:52.545Z,12.30
2018-09-28T12:26:21.923Z,8.03
2018-09-28T12:28:51.262Z,9.20
2018-09-28T12:31:20.906Z,16.30
2018-09-28T12:33:50.109Z,14.83
2018-09-28T12:36:19.661Z,5.50
2018-09-28T12:38:48.890Z,7.00
2018-09-28T12:41:18.106Z,6.23
2018-09-28T12:43:47.443Z,9.17
2018-09-28T12:46:16.879Z,8.40
2018-09-28T12:48:46.272Z,29.83
2018-09-28T12:51:15.576Z,9.30
2018-09-28T12:53:44.856Z,6.80
2018-09-28T12:56:14.251Z,11.53
2018-09-28T12:58:43.407Z,7.23
2018-09-28T13:01:12.734Z,9.60
2018-09-28T13:03:42.794Z,7.67
2018-09-28T13:06:12.079Z,7.93
2018-09-28T13:08:41.223Z,7.27
2018-09-28T13:11:10.407Z,8.60
2018-09-28T13:13:39.563Z,7.50
2018-09-28T13:16:09.303Z,7.47
2018-09-28T13:18:38.551Z,10.93
2018-09-28T13:21:07.799Z,20.87
2018-09-28T13:23:36.903Z,8.83
2018-09-28T13:26:06.318Z,9.83
2018-09-28T13:28:35.491Z,11.47
2018-09-28T13:31:04.663Z,11.63
2018-09-28T13:33:33.834Z,12.60
2018-09-28T13:36:03.002Z,12.30
2018-09-28T13:38:32.353Z,14.60
2018-09-28T13:41:01.369Z,11.60
2018-09-28T13:43:30.538Z,12.50
2018-09-28T13:45:59.830Z,11.57
2018-09-28T13:48:28.995Z,15.77
2018-09-28T13:50:58.294Z,10.50
2018-09-28T13:53:27.734Z,12.67
2018-09-28T13:55:56.986Z,16.50
2018-09-28T13:58:26.244Z,9.70
2018-09-28T14:00:55.390Z,9.97
2018-09-28T14:03:25.698Z,11.80
2018-09-28T14:05:55.517Z,12.90
2018-09-28T14:08:24.960Z,10.40
2018-09-28T14:10:54.819Z,13.30
2018-09-28T14:13:23.987Z,13.90
2018-09-28T14:15:53.705Z,16.30
2018-09-28T14:18:23.735Z,12.30
2018-09-28T14:20:53.028Z,12.63
2018-09-28T14:23:22.554Z,10.60
2018-09-28T14:25:51.792Z,10.33
2018-09-28T14:28:21.170Z,13.13
2018-09-28T14:30:50.764Z,9.07
2018-09-28T14:33:19.940Z,12.40
2018-09-28T14:35:49.187Z,7.97
2018-09-28T14:38:18.536Z,11.63
2018-09-28T14:40:47.957Z,8.03
2018-09-28T14:43:17.114Z,7.27
2018-09-28T14:45:48.922Z,8.60
2018-09-28T14:48:18.418Z,7.70
2018-09-28T14:50:48.504Z,7.67
2018-09-28T14:53:19.538Z,10.13
2018-09-28T14:55:48.997Z,8.67
2018-09-28T14:58:18.435Z,9.20
2018-09-28T15:00:47.781Z,7.53
2018-09-28T15:03:17.915Z,11.30
2018-09-28T15:05:47.046Z,8.50
2018-09-28T15:08:16.979Z,8.57
2018-09-28T15:10:46.163Z,9.13
2018-09-28T15:13:15.342Z,10.23
2018-09-28T15:15:44.577Z,10.20
2018-09-28T15:18:14.624Z,12.20
2018-09-28T15:20:44.715Z,11.93
2018-09-28T15:23:13.990Z,10.40
2018-09-28T15:25:43.970Z,14.27
2018-09-28T15:28:14.479Z,14.00
2018-09-28T15:30:45.275Z,11.43
2018-09-28T15:33:16.118Z,14.03
2018-09-28T15:35:45.862Z,12.10
2018-09-28T15:38:15.342Z,10.53
2018-09-28T15:40:44.734Z,10.13
2018-09-28T15:43:13.918Z,11.40
2018-09-28T15:45:43.094Z,12.40
2018-09-28T15:48:12.998Z,13.33
2018-09-28T15:50:42.286Z,10.57
2018-09-28T15:53:11.418Z,13.63
2018-09-28T15:55:40.548Z,14.67
2018-09-28T15:58:09.658Z,11.77
2018-09-28T16:00:38.794Z,12.60
2018-09-28T16:03:07.894Z,13.67
2018-09-28T16:05:37.538Z,12.83
2018-09-28T16:08:06.694Z,12.43
2018-09-28T16:10:35.803Z,13.80
2018-09-28T16:13:04.958Z,10.40
2018-09-28T16:15:34.502Z,10.43
2018-09-28T16:18:03.598Z,12.57
2018-09-28T16:20:32.850Z,16.17
2018-09-28T16:23:02.038Z,10.57
2018-09-28T16:25:31.900Z,17.30
2018-09-28T16:28:01.003Z,13.97
2018-09-28T16:30:30.150Z,12.13
2018-09-28T16:32:59.264Z,16.13
2018-09-28T16:35:28.366Z,15.80
2018-09-28T16:37:57.504Z,15.43
2018-09-28T16:40:26.623Z,15.00
2018-09-28T16:42:55.744Z,16.23
2018-09-28T16:45:25.398Z,16.47
2018-09-28T16:47:54.506Z,13.90
2018-09-28T16:50:23.634Z,14.70
2018-09-28T16:52:53.030Z,14.80
2018-09-28T16:55:22.137Z,17.60
2018-09-28T16:57:51.315Z,15.93
2018-09-28T17:00:20.410Z,12.60
2018-09-28T17:02:49.914Z,16.60
2018-09-28T17:05:19.067Z,17.80
2018-09-28T17:07:48.215Z,15.07
2018-09-28T17:10:17.322Z,19.80
2018-09-28T17:12:46.462Z,16.70
2018-09-28T17:15:15.566Z,16.00
2018-09-28T17:17:44.670Z,20.63
2018-09-28T17:20:14.247Z,18.87
2018-09-28T17:22:43.562Z,26.57
2018-09-28T17:25:12.930Z,23.60
2018-09-28T17:27:42.074Z,21.47
2018-09-28T17:30:11.241Z,22.70
2018-09-28T17:32:40.614Z,19.90
2018-09-28T17:35:09.797Z,21.27
2018-09-28T17:37:38.903Z,27.03
2018-09-28T17:40:08.054Z,24.23
2018-09-28T17:42:37.958Z,21.33
2018-09-28T17:45:07.374Z,21.13
2018-09-28T17:47:36.489Z,18.60
2018-09-28T17:50:05.611Z,18.37
2018-09-28T17:52:35.727Z,16.47
2018-09-28T17:55:04.986Z,18.93
2018-09-28T17:57:34.118Z,15.10
2018-09-28T18:00:03.287Z,21.13
2018-09-28T18:02:32.416Z,14.77
2018-09-28T18:05:01.536Z,10.50
2018-09-28T18:07:30.711Z,14.90
2018-09-28T18:10:00.103Z,7.80
2018-09-28T18:12:29.410Z,8.73
2018-09-28T18:14:58.519Z,9.20
2018-09-28T18:17:27.690Z,11.87
2018-09-28T18:19:56.901Z,6.90
2018-09-28T18:22:26.113Z,9.50
2018-09-28T18:24:55.307Z,8.20
2018-09-28T18:27:24.586Z,9.87
2018-09-28T18:29:55.216Z,7.07
2018-09-28T18:32:24.950Z,6.87
2018-09-28T18:34:55.011Z,8.40
2018-09-28T18:37:24.747Z,10.60
2018-09-28T18:39:54.250Z,8.80
2018-09-28T18:42:23.758Z,7.03
2018-09-28T18:44:53.219Z,8.73
2018-09-28T18:47:22.819Z,7.57
2018-09-28T18:49:52.435Z,8.37
2018-09-28T18:52:21.930Z,4.97
2018-09-28T18:54:51.735Z,5.60
2018-09-28T18:57:21.122Z,7.57
2018-09-28T18:59:50.721Z,6.13
2018-09-28T19:02:20.122Z,7.17
2018-09-28T19:04:49.547Z,5.90
2018-09-28T19:07:18.950Z,4.87
2018-09-28T19:09:48.741Z,6.47
2018-09-28T19:12:18.642Z,6.23
2018-09-28T19:14:48.998Z,5.60
2018-09-28T19:17:18.378Z,8.10
2018-09-28T19:19:48.063Z,5.63
2018-09-28T19:22:17.422Z,6.27
2018-09-28T19:24:48.593Z,5.83
2018-09-28T19:27:18.069Z,7.30
2018-09-28T19:29:48.292Z,7.80
2018-09-28T19:32:17.924Z,7.37
2018-09-28T19:34:47.792Z,5.70
2018-09-28T19:37:19.374Z,7.30
2018-09-28T19:39:48.750Z,6.73
2018-09-28T19:42:18.420Z,6.73
2018-09-28T19:44:47.751Z,7.60
2018-09-28T19:47:17.903Z,6.50
2018-09-28T19:49:47.631Z,8.40
2018-09-28T19:52:16.801Z,10.57
2018-09-28T19:54:46.214Z,8.00
2018-09-28T19:57:16.231Z,7.10
2018-09-28T19:59:46.070Z,8.17
2018-09-28T20:02:15.654Z,8.43
2018-09-28T20:04:45.230Z,8.33
2018-09-28T20:07:15.557Z,10.10
2018-09-28T20:09:45.114Z,10.30
2018-09-28T20:12:15.364Z,14.03
2018-09-28T20:14:45.233Z,12.93
2018-09-28T20:17:14.587Z,12.50
2018-09-28T20:19:43.930Z,17.90
2018-09-28T20:22:14.437Z,13.00
2018-09-28T20:24:44.526Z,14.13
2018-09-28T20:27:14.475Z,14.27
2018-09-28T20:29:44.219Z,14.33
2018-09-28T20:32:14.291Z,17.23
2018-09-28T20:34:43.629Z,14.87
2018-09-28T20:37:13.259Z,10.60
2018-09-28T20:39:42.611Z,13.30
2018-09-28T20:42:11.886Z,15.37
2018-09-28T20:44:41.464Z,16.53
2018-09-28T20:47:10.817Z,15.50
2018-09-28T20:49:40.439Z,23.03
2018-09-28T20:52:10.360Z,12.93
2018-09-28T20:54:40.278Z,17.73
2018-09-28T20:57:09.485Z,16.60
2018-09-28T20:59:40.529Z,15.27
2018-09-28T21:02:09.948Z,16.13
2018-09-28T21:04:41.794Z,22.17
2018-09-28T21:07:11.126Z,17.20
2018-09-28T21:09:40.462Z,16.53
2018-09-28T21:12:10.530Z,19.47
2018-09-28T21:14:44.227Z,25.30
2018-09-28T21:17:13.979Z,18.70
2018-09-28T21:19:43.413Z,19.67
2018-09-28T21:22:12.547Z,27.80
2018-09-28T21:24:42.496Z,22.63
2018-09-28T21:27:11.586Z,23.93
2018-09-28T21:29:40.714Z,27.57
2018-09-28T21:32:11.377Z,21.90
2018-09-28T21:34:40.526Z,27.33
2018-09-28T21:37:09.663Z,28.67
2018-09-28T21:39:39.458Z,26.67
2018-09-28T21:42:08.649Z,31.23
2018-09-28T21:44:37.903Z,24.27
2018-09-28T21:47:07.029Z,30.83
2018-09-28T21:49:36.187Z,25.33
2018-09-28T21:52:05.458Z,24.10
2018-09-28T21:54:36.179Z,32.93
2018-09-28T21:57:05.339Z,26.53
2018-09-28T21:59:34.506Z,26.60
2018-09-28T22:02:04.671Z,23.40
2018-09-28T22:04:34.277Z,29.13
2018-09-28T22:07:03.386Z,22.27
2018-09-28T22:09:32.683Z,25.90
2018-09-28T22:12:01.900Z,18.13
2018-09-28T22:14:31.670Z,22.63
2018-09-28T22:17:04.062Z,19.97
2018-09-28T22:19:33.250Z,26.17
2018-09-28T22:22:02.366Z,23.00
2018-09-28T22:24:33.018Z,28.33
2018-09-28T22:27:02.151Z,16.40
2018-09-28T22:29:31.423Z,21.27
2018-09-28T22:32:07.651Z,18.63
2018-09-28T22:34:36.900Z,23.47
2018-09-28T22:37:06.738Z,24.63
2018-09-28T22:39:36.695Z,20.53
2018-09-28T22:42:05.818Z,24.60
2018-09-28T22:44:34.970Z,18.97
2018-09-28T22:47:04.207Z,17.90
2018-09-28T22:49:33.322Z,15.60
2018-09-28T22:52:02.931Z,13.13
2018-09-28T22:54:32.113Z,16.70
2018-09-28T22:57:01.312Z,16.93
2018-09-28T22:59:30.457Z,16.77
2018-09-28T23:02:00.742Z,17.10
2018-09-28T23:04:30.414Z,10.77
2018-09-28T23:06:59.650Z,14.87
2018-09-28T23:10:32.666Z,13.73
2018-09-28T23:13:01.805Z,12.80
2018-09-28T23:15:30.941Z,16.40
2018-09-28T23:18:00.087Z,10.60
2018-09-28T23:20:29.250Z,12.13
2018-09-28T23:22:58.345Z,9.60
2018-09-28T23:25:30.077Z,8.57
2018-09-28T23:27:59.238Z,10.97
2018-09-28T23:30:28.399Z,4.80
2018-09-28T23:32:57.545Z,6.47
2018-09-28T23:35:27.111Z,9.60
2018-09-28T23:37:56.774Z,11.37
2018-09-28T23:40:26.118Z,12.70
2018-09-28T23:42:56.132Z,4.90
2018-09-28T23:45:25.377Z,7.80
2018-09-28T23:47:54.510Z,11.07
2018-09-28T23:50:24.166Z,7.53
2018-09-28T23:52:53.299Z,4.47
2018-09-28T23:55:22.420Z,8.43
2018-09-28T23:57:51.573Z,8.23
